Time;durP1;ratioP1;P1;durP2;ratioP2;P2;SDS_P1;SDS_P2;PMS_P1;PMS_P2;Temp;Humidity;BMP_temperature;BMP_pressure;BME280_temperature;BME280_humidity;BME280_pressure;Samples;Min_cycle;Max_cycle;Signal;HPM_P1;HPM_P2
2023/09/14 00:01:48;;;;;;;0.20;0.20;;;;;;;15.86;81.64;97898.19;4958176;28;20492;-69
2023/09/14 00:04:17;;;;;;;0.10;0.10;;;;;;;15.87;81.94;97902.53;4938521;29;20051;-71
2023/09/14 00:06:45;;;;;;;0.20;0.20;;;;;;;15.84;82.22;97900.28;4958040;28;20038;-71
2023/09/14 00:09:13;;;;;;;0.10;0.10;;;;;;;15.65;82.29;97905.63;4955944;29;20058;-70
2023/09/14 00:11:41;;;;;;;0.10;0.10;;;;;;;15.64;82.17;97906.66;4956226;29;20054;-70
2023/09/14 00:14:08;;;;;;;0.10;0.10;;;;;;;15.50;83.07;97909.63;4954357;28;20075;-70
2023/09/14 00:16:36;;;;;;;0.13;0.13;;;;;;;15.56;83.00;97908.81;4955895;28;20047;-70
2023/09/14 00:19:04;;;;;;;0.20;0.20;;;;;;;15.56;82.72;97906.13;4955725;29;20135;-70
2023/09/14 00:21:33;;;;;;;0.10;0.10;;;;;;;15.39;82.62;97916.53;4942725;28;20082;-70
2023/09/14 00:24:01;;;;;;;0.13;0.13;;;;;;;15.28;82.90;97915.34;4948775;28;20499;-70
2023/09/14 00:26:28;;;;;;;0.10;0.10;;;;;;;15.30;82.91;97915.13;4952537;28;20083;-70
2023/09/14 00:28:57;;;;;;;0.13;0.13;;;;;;;15.24;82.96;97921.41;4955376;28;20055;-70
2023/09/14 00:31:24;;;;;;;0.03;0.03;;;;;;;15.22;82.98;97916.22;4955396;29;20043;-70
2023/09/14 00:33:52;;;;;;;0.03;0.03;;;;;;;15.26;82.83;97930.88;4939002;29;20051;-70
2023/09/14 00:36:20;;;;;;;0.10;0.10;;;;;;;15.28;83.12;97934.19;4954644;28;20550;-70
2023/09/14 00:38:49;;;;;;;0.20;0.20;;;;;;;15.31;83.01;97932.94;4938552;29;20130;-70
2023/09/14 00:41:17;;;;;;;0.10;0.10;;;;;;;15.36;82.28;97935.81;4938434;29;20061;-70
2023/09/14 00:43:45;;;;;;;0.13;0.13;;;;;;;15.32;82.41;97934.59;4955010;29;20054;-70
2023/09/14 00:46:12;;;;;;;0.10;0.10;;;;;;;15.32;82.36;97929.19;4937279;29;20142;-70
2023/09/14 00:48:39;;;;;;;0.10;0.10;;;;;;;15.25;82.39;97925.75;4953559;29;20410;-70
2023/09/14 00:51:07;;;;;;;0.20;0.20;;;;;;;15.20;82.28;97926.38;4951470;28;20042;-69
2023/09/14 00:53:35;;;;;;;0.17;0.17;;;;;;;15.14;81.99;97921.88;4952732;28;20039;-69
2023/09/14 00:56:06;;;;;;;0.13;0.13;;;;;;;15.22;82.45;97918.09;4937956;29;20053;-69
2023/09/14 00:58:33;;;;;;;0.03;0.03;;;;;;;15.23;82.67;97923.25;4937033;29;20061;-69
2023/09/14 01:01:03;;;;;;;0.13;0.13;;;;;;;15.28;82.92;97922.59;4951162;29;20051;-71
2023/09/14 01:03:31;;;;;;;0.13;0.13;;;;;;;15.23;82.17;97917.88;4946978;28;20040;-69
2023/09/14 01:05:59;;;;;;;0.15;0.15;;;;;;;15.21;81.81;97916.44;4953464;28;20051;-68
2023/09/14 01:08:27;;;;;;;0.30;0.30;;;;;;;15.11;81.67;97916.91;4941243;29;20496;-68
2023/09/14 01:10:55;;;;;;;0.13;0.13;;;;;;;15.12;81.79;97923.13;4953369;29;20402;-69
2023/09/14 01:13:29;;;;;;;0.13;0.13;;;;;;;15.05;82.03;97923.16;4955052;28;20047;-68
2023/09/14 01:16:06;;;;;;;0.10;0.10;;;;;;;15.09;82.30;97918.16;4954328;29;20098;-69
2023/09/14 01:18:37;;;;;;;0.20;0.20;;;;;;;15.07;82.16;97929.13;4937211;29;20068;-70
2023/09/14 01:21:41;;;;;;;0.22;0.22;;;;;;;15.09;82.06;97929.75;4940122;29;20511;-70
2023/09/14 01:24:18;;;;;;;0.03;0.03;;;;;;;15.04;82.62;97924.19;4936298;29;20146;-69
2023/09/14 01:26:48;;;;;;;0.22;0.22;;;;;;;14.98;82.68;97933.94;4940138;28;20585;-69
2023/09/14 01:29:17;;;;;;;0.13;0.13;;;;;;;14.84;83.12;97929.69;4953430;29;20047;-69
2023/09/14 01:31:45;;;;;;;0.10;0.10;;;;;;;14.80;82.96;97933.81;4953569;28;20039;-69
2023/09/14 01:34:13;;;;;;;0.28;0.28;;;;;;;14.85;82.75;97935.84;4937900;28;20043;-70
2023/09/14 01:36:44;;;;;;;0.20;0.20;;;;;;;14.85;82.19;97933.16;4936952;29;20458;-69
2023/09/14 01:39:12;;;;;;;0.13;0.13;;;;;;;14.86;81.99;97934.81;4952169;28;20674;-70
2023/09/14 01:41:40;;;;;;;0.13;0.13;;;;;;;14.81;82.02;97931.94;4940622;29;20047;-69
2023/09/14 01:44:10;;;;;;;0.10;0.10;;;;;;;14.84;81.76;97929.69;4951907;28;20143;-69
2023/09/14 01:46:39;;;;;;;0.20;0.20;;;;;;;14.82;81.10;97936.28;4938461;28;20130;-69
2023/09/14 01:49:06;;;;;;;0.30;0.30;;;;;;;14.81;80.32;97938.16;4960251;28;20137;-69
2023/09/14 01:51:34;;;;;;;0.20;0.20;;;;;;;14.71;79.96;97942.31;4936055;29;20527;-70
2023/09/14 01:54:01;;;;;;;0.13;0.13;;;;;;;14.71;79.95;97947.69;4929462;29;20111;-70
2023/09/14 01:56:29;;;;;;;0.20;0.20;;;;;;;14.67;79.68;97939.22;4934306;28;20134;-71
2023/09/14 01:58:57;;;;;;;0.35;0.35;;;;;;;14.59;79.64;97939.47;4941795;29;20146;-71
2023/09/14 02:01:26;;;;;;;0.13;0.13;;;;;;;14.59;79.34;97939.47;4937013;29;20455;-71
2023/09/14 02:03:54;;;;;;;0.20;0.20;;;;;;;14.57;79.43;97942.38;4950642;28;20052;-70
2023/09/14 02:06:22;;;;;;;0.20;0.20;;;;;;;14.52;79.21;97946.72;4950019;29;20043;-71
2023/09/14 02:08:50;;;;;;;0.13;0.13;;;;;;;14.55;79.13;97938.22;4951694;28;20051;-70
2023/09/14 02:11:19;;;;;;;0.13;0.13;;;;;;;14.53;79.14;97946.53;4925128;29;20463;-70
2023/09/14 02:13:47;;;;;;;0.30;0.30;;;;;;;14.49;78.42;97936.41;4956574;28;20051;-69
2023/09/14 02:16:15;;;;;;;0.20;0.20;;;;;;;14.38;78.58;97937.84;4951218;29;20054;-69
2023/09/14 02:18:44;;;;;;;0.15;0.15;;;;;;;14.42;78.53;97943.66;4944568;28;20046;-69
2023/09/14 02:21:16;;;;;;;0.17;0.17;;;;;;;14.39;78.57;97946.72;4954418;28;20522;-69
2023/09/14 02:23:44;;;;;;;0.25;0.25;;;;;;;14.26;78.86;97939.50;4956522;28;20082;-69
2023/09/14 02:26:11;;;;;;;0.13;0.13;;;;;;;14.29;79.06;97942.63;4952923;29;20043;-68
2023/09/14 02:28:39;;;;;;;0.17;0.17;;;;;;;14.26;78.82;97940.34;4954211;28;20045;-69
2023/09/14 02:31:07;;;;;;;0.13;0.13;;;;;;;14.26;79.12;97937.66;4936271;29;20143;-70
2023/09/14 02:33:37;;;;;;;0.17;0.17;;;;;;;14.32;78.73;97936.84;4937560;29;20043;-67
2023/09/14 02:36:06;;;;;;;0.10;0.10;;;;;;;14.31;78.39;97935.19;4936220;29;20133;-67
2023/09/14 02:38:34;;;;;;;0.20;0.20;;;;;;;14.32;78.48;97941.38;4955272;28;20043;-67
2023/09/14 02:41:02;;;;;;;0.25;0.25;;;;;;;14.33;78.49;97933.09;4955575;28;20090;-68
2023/09/14 02:43:29;;;;;;;0.30;0.30;;;;;;;14.38;78.06;97937.84;4935090;29;20070;-68
2023/09/14 02:45:58;;;;;;;0.08;0.08;;;;;;;14.38;78.10;97942.38;4952818;29;20522;-71
2023/09/14 02:48:25;;;;;;;0.30;0.30;;;;;;;14.29;77.26;97934.56;4939296;29;20043;-69
2023/09/14 02:50:53;;;;;;;0.20;0.20;;;;;;;14.27;77.57;97941.16;4941143;28;20074;-69
2023/09/14 02:53:22;;;;;;;0.20;0.20;;;;;;;14.19;77.55;97939.53;4951758;28;20122;-70
2023/09/14 02:55:50;;;;;;;0.22;0.22;;;;;;;14.14;77.75;97935.81;4953300;28;20046;-70
2023/09/14 02:58:18;;;;;;;0.13;0.13;;;;;;;14.10;78.02;97938.09;4955544;28;20049;-69
2023/09/14 03:00:48;;;;;;;0.20;0.20;;;;;;;14.12;78.17;97944.06;4933941;29;20570;-69
2023/09/14 03:03:18;;;;;;;0.13;0.13;;;;;;;14.03;78.33;97934.59;4934767;29;20133;-70
2023/09/14 03:05:48;;;;;;;0.20;0.20;;;;;;;14.08;78.60;97939.34;4950847;29;20409;-71
2023/09/14 03:08:16;;;;;;;0.22;0.22;;;;;;;14.16;78.54;97945.31;4935616;29;20051;-71
2023/09/14 03:10:45;;;;;;;0.20;0.20;;;;;;;14.22;78.47;97940.97;4935221;29;20047;-69
2023/09/14 03:13:12;;;;;;;0.13;0.13;;;;;;;14.25;77.95;97946.75;4950771;28;20050;-70
2023/09/14 03:15:40;;;;;;;0.40;0.32;;;;;;;14.13;78.68;97953.78;4946994;29;20043;-70
2023/09/14 03:18:08;;;;;;;0.30;0.30;;;;;;;14.21;78.35;97952.75;4950143;28;20066;-70
2023/09/14 03:20:38;;;;;;;0.13;0.13;;;;;;;14.24;78.08;97957.69;4949197;28;20499;-70
2023/09/14 03:23:06;;;;;;;0.13;0.13;;;;;;;14.20;77.82;97956.47;4949109;28;20063;-70
2023/09/14 03:25:34;;;;;;;0.22;0.22;;;;;;;14.10;78.25;97951.53;4946482;29;20039;-70
2023/09/14 03:28:03;;;;;;;0.20;0.20;;;;;;;14.16;78.16;97958.72;4953431;28;20039;-70
2023/09/14 03:30:33;;;;;;;0.22;0.22;;;;;;;14.20;78.31;97951.94;4932500;29;20066;-70
2023/09/14 03:33:01;;;;;;;0.22;0.22;;;;;;;14.26;77.71;97959.13;4948234;28;20097;-70
2023/09/14 03:35:29;;;;;;;0.22;0.22;;;;;;;14.19;77.43;97963.69;4941623;29;20055;-70
2023/09/14 03:37:57;;;;;;;0.20;0.20;;;;;;;14.20;77.53;97965.34;4958688;28;20051;-70
2023/09/14 03:40:25;;;;;;;0.20;0.20;;;;;;;14.09;77.79;97965.97;4945504;28;20043;-70
2023/09/14 03:42:53;;;;;;;0.15;0.15;;;;;;;14.16;77.35;97971.34;4960173;28;20039;-70
2023/09/14 03:45:22;;;;;;;0.20;0.20;;;;;;;14.08;77.24;97972.38;4934286;29;20043;-69
2023/09/14 03:47:51;;;;;;;0.22;0.22;;;;;;;14.04;77.98;97965.75;4951267;28;20081;-70
2023/09/14 03:50:19;;;;;;;0.10;0.10;;;;;;;14.09;78.14;97974.03;4956553;28;20046;-69
2023/09/14 03:52:46;;;;;;;0.25;0.25;;;;;;;14.12;78.18;97983.53;4936848;29;20134;-69
2023/09/14 03:55:15;;;;;;;0.03;0.03;;;;;;;14.17;78.31;97984.56;4936837;29;20054;-69
2023/09/14 03:57:47;;;;;;;0.10;0.10;;;;;;;14.22;77.98;97976.69;4955321;28;20047;-70
2023/09/14 04:00:16;;;;;;;0.20;0.20;;;;;;;14.24;77.81;97985.38;4953014;28;20050;-69
2023/09/14 04:02:48;;;;;;;0.20;0.20;;;;;;;14.29;77.35;97977.53;4939101;29;20054;-69
2023/09/14 04:05:17;;;;;;;0.15;0.15;;;;;;;14.32;77.18;97987.84;4952358;28;20047;-70
2023/09/14 04:07:47;;;;;;;0.22;0.22;;;;;;;14.01;77.85;97994.91;4948637;28;20479;-69
2023/09/14 04:10:14;;;;;;;0.03;0.03;;;;;;;14.09;78.15;97984.78;4952622;29;20146;-69
2023/09/14 04:12:44;;;;;;;0.13;0.13;;;;;;;14.03;77.80;97992.81;4939352;29;20063;-70
2023/09/14 04:15:12;;;;;;;0.13;0.13;;;;;;;14.05;78.19;97994.25;4957128;28;20043;-70
2023/09/14 04:17:41;;;;;;;0.13;0.13;;;;;;;14.12;78.05;97991.59;4937469;28;20445;-70
2023/09/14 04:20:11;;;;;;;0.03;0.03;;;;;;;14.12;78.05;97989.69;4954050;28;20059;-69
2023/09/14 04:22:40;;;;;;;0.25;0.25;;;;;;;14.07;78.00;97988.69;4954440;29;20043;-70
2023/09/14 04:25:08;;;;;;;0.13;0.13;;;;;;;14.12;77.96;97996.97;4952404;28;20040;-69
2023/09/14 04:27:37;;;;;;;0.15;0.15;;;;;;;14.11;77.77;97992.63;4939616;29;20051;-69
2023/09/14 04:30:08;;;;;;;0.10;0.10;;;;;;;14.06;78.06;97993.22;4949379;28;20035;-69
2023/09/14 04:32:36;;;;;;;0.17;0.17;;;;;;;14.03;77.90;97999.00;4939417;29;20046;-69
2023/09/14 04:35:05;;;;;;;0.22;0.22;;;;;;;14.13;77.83;98004.78;4939145;29;20047;-69
2023/09/14 04:37:35;;;;;;;0.13;0.13;;;;;;;14.14;78.33;98006.44;4943490;28;20069;-69
2023/09/14 04:40:09;;;;;;;0.25;0.25;;;;;;;14.21;77.56;98006.44;4933549;28;20435;-69
2023/09/14 04:42:36;;;;;;;0.13;0.13;;;;;;;14.26;77.12;98006.63;4936596;29;20124;-70
2023/09/14 04:45:05;;;;;;;0.22;0.22;;;;;;;14.26;76.87;98010.16;4948900;29;20047;-69
2023/09/14 04:47:33;;;;;;;0.13;0.13;;;;;;;14.33;76.71;98012.81;4947032;28;20035;-69
2023/09/14 04:50:02;;;;;;;0.10;0.10;;;;;;;14.38;76.63;98015.72;4935698;28;20059;-70
2023/09/14 04:52:30;;;;;;;0.10;0.10;;;;;;;14.30;75.90;98010.56;4936212;29;20046;-69
2023/09/14 04:54:59;;;;;;;0.17;0.17;;;;;;;14.13;76.73;98025.44;4942501;28;20107;-69
2023/09/14 04:57:27;;;;;;;0.03;0.03;;;;;;;14.23;76.78;98025.84;4929227;29;20047;-69
2023/09/14 04:59:54;;;;;;;0.13;0.13;;;;;;;14.28;76.49;98026.06;4945441;29;20047;-69
2023/09/14 05:02:22;;;;;;;0.20;0.20;;;;;;;14.33;76.19;98032.44;4952531;29;20055;-69
2023/09/14 05:04:50;;;;;;;0.22;0.22;;;;;;;14.36;75.88;98020.47;4937688;29;20043;-69
2023/09/14 05:07:20;;;;;;;0.03;0.03;;;;;;;14.38;75.68;98020.25;4943062;29;20106;-69
2023/09/14 05:09:48;;;;;;;0.13;0.13;;;;;;;14.18;75.69;98021.09;4954739;29;20126;-69
2023/09/14 05:12:17;;;;;;;0.22;0.22;;;;;;;14.18;76.65;98022.97;4932705;29;20063;-69
2023/09/14 05:14:45;;;;;;;0.22;0.22;;;;;;;14.17;76.06;98024.00;4949679;29;20044;-69
2023/09/14 05:17:13;;;;;;;0.20;0.20;;;;;;;14.23;76.43;98021.28;4929985;28;20050;-69
2023/09/14 05:19:41;;;;;;;0.10;0.10;;;;;;;14.30;76.59;98032.88;4934193;29;20433;-69
2023/09/14 05:22:09;;;;;;;0.22;0.22;;;;;;;14.32;76.24;98033.50;4949780;29;20455;-69
2023/09/14 05:24:39;;;;;;;0.10;0.10;;;;;;;14.41;76.23;98044.06;4933611;29;20459;-69
2023/09/14 05:27:10;;;;;;;0.20;0.20;;;;;;;14.41;75.88;98028.78;4928523;29;20044;-69
2023/09/14 05:29:39;;;;;;;0.03;0.03;;;;;;;14.45;75.70;98035.38;4947798;29;20039;-69
2023/09/14 05:32:07;;;;;;;0.10;0.10;;;;;;;14.45;75.68;98029.16;4947263;28;20043;-69
2023/09/14 05:34:37;;;;;;;0.22;0.22;;;;;;;14.44;75.32;98039.09;4935562;29;20062;-69
2023/09/14 05:37:05;;;;;;;0.13;0.13;;;;;;;14.32;75.27;98036.19;4934077;29;20102;-69
2023/09/14 05:39:33;;;;;;;0.20;0.20;;;;;;;14.35;75.60;98037.63;4942607;28;20058;-69
2023/09/14 05:42:01;;;;;;;0.20;0.20;;;;;;;14.33;75.79;98043.19;4934241;28;20074;-69
2023/09/14 05:44:29;;;;;;;0.13;0.13;;;;;;;14.34;75.83;98047.53;4947793;28;20052;-69
2023/09/14 05:46:58;;;;;;;0.28;0.28;;;;;;;14.38;75.79;98044.44;4951347;29;20094;-69
2023/09/14 05:49:25;;;;;;;0.20;0.20;;;;;;;14.41;74.99;98039.53;4935173;29;20055;-69
2023/09/14 05:51:53;;;;;;;0.20;0.20;;;;;;;14.46;74.38;98049.63;4935247;29;20051;-69
2023/09/14 05:54:21;;;;;;;0.13;0.13;;;;;;;14.24;74.25;98049.81;4952554;28;20058;-69
2023/09/14 05:56:48;;;;;;;0.03;0.03;;;;;;;14.31;74.65;98056.03;4949770;29;20062;-69
2023/09/14 05:59:17;;;;;;;0.20;0.20;;;;;;;14.37;74.59;98058.91;4937062;29;20050;-69
2023/09/14 06:02:00;;;;;;;0.10;0.10;;;;;;;14.37;74.11;98069.63;4930770;29;20142;-68
2023/09/14 06:04:28;;;;;;;0.13;0.13;;;;;;;14.38;73.47;98066.75;4952768;29;20414;-69
2023/09/14 06:06:56;;;;;;;0.13;0.13;;;;;;;14.38;73.30;98065.91;4945304;29;20486;-69
2023/09/14 06:09:26;;;;;;;0.10;0.10;;;;;;;14.31;72.51;98072.13;4954731;29;20047;-69
2023/09/14 06:11:54;;;;;;;0.08;0.08;;;;;;;14.18;72.11;98066.75;4953584;29;20239;-69
2023/09/14 06:14:22;;;;;;;0.10;0.10;;;;;;;14.06;72.44;98083.66;4949285;29;20665;-69
2023/09/14 06:16:50;;;;;;;0.20;0.20;;;;;;;14.12;72.53;98072.13;4953349;29;20035;-69
2023/09/14 06:19:19;;;;;;;0.13;0.13;;;;;;;14.19;72.70;98075.63;4950147;29;20055;-68
2023/09/14 06:21:46;;;;;;;0.13;0.13;;;;;;;14.26;72.37;98071.91;4954323;29;20043;-68
2023/09/14 06:24:15;;;;;;;0.20;0.20;;;;;;;14.24;72.29;98078.50;4954919;29;20047;-67
2023/09/14 06:26:43;;;;;;;0.30;0.30;;;;;;;14.23;72.24;98080.38;4951826;29;20513;-67
2023/09/14 06:29:12;;;;;;;0.30;0.30;;;;;;;14.26;72.37;98079.13;4949386;29;20051;-67
2023/09/14 06:31:41;;;;;;;0.13;0.13;;;;;;;14.24;72.22;98075.81;4950656;29;20046;-67
2023/09/14 06:34:09;;;;;;;0.10;0.10;;;;;;;14.28;72.50;98080.59;4946816;29;20045;-68
2023/09/14 06:36:38;;;;;;;0.13;0.13;;;;;;;14.27;71.75;98086.16;4949447;29;20035;-67
2023/09/14 06:39:05;;;;;;;0.15;0.15;;;;;;;14.30;72.02;98086.59;4951261;29;20051;-67
2023/09/14 06:41:33;;;;;;;0.22;0.22;;;;;;;14.37;71.78;98083.91;4957849;28;20052;-68
2023/09/14 06:44:04;;;;;;;0.10;0.10;;;;;;;14.44;71.79;98083.91;4936765;29;20058;-67
2023/09/14 06:46:32;;;;;;;0.22;0.22;;;;;;;14.36;71.25;98092.16;4948600;29;20043;-68
2023/09/14 06:49:00;;;;;;;0.20;0.20;;;;;;;14.37;71.50;98091.13;4956909;28;20054;-68
2023/09/14 06:51:28;;;;;;;0.20;0.20;;;;;;;14.38;71.80;98095.47;4952097;28;20047;-68
2023/09/14 06:53:57;;;;;;;0.13;0.13;;;;;;;14.41;72.12;98097.78;4953055;28;20521;-68
2023/09/14 06:56:25;;;;;;;0.40;0.40;;;;;;;14.45;71.75;98105.19;4952919;29;20058;-67
2023/09/14 06:58:52;;;;;;;0.22;0.22;;;;;;;14.33;71.80;98098.75;4952839;29;20514;-67
2023/09/14 07:01:21;;;;;;;0.22;0.22;;;;;;;14.26;71.82;98092.56;4957785;28;20103;-68
2023/09/14 07:03:50;;;;;;;0.00;0.00;;;;;;;14.07;72.79;98098.75;4952019;28;20395;-67
2023/09/14 07:06:18;;;;;;;0.17;0.17;;;;;;;14.22;72.60;98092.13;4957837;28;20546;-67
2023/09/14 07:08:46;;;;;;;0.20;0.20;;;;;;;14.42;72.35;98094.06;4952361;28;20137;-67
2023/09/14 07:11:15;;;;;;;0.03;0.03;;;;;;;14.54;71.90;98097.75;4955273;28;20054;-67
2023/09/14 07:13:43;;;;;;;0.13;0.13;;;;;;;14.56;71.83;98101.91;4952946;29;20125;-67
2023/09/14 07:16:11;;;;;;;0.13;0.13;;;;;;;14.69;71.14;98101.06;4952524;29;20046;-67
2023/09/14 07:18:39;;;;;;;0.03;0.03;;;;;;;14.80;71.17;98099.59;4955156;28;20046;-67
2023/09/14 07:21:06;;;;;;;0.10;0.10;;;;;;;14.87;70.96;98106.63;4954945;28;20118;-68
2023/09/14 07:23:34;;;;;;;0.20;0.20;;;;;;;14.87;70.17;98108.47;4952956;29;20050;-69
2023/09/14 07:26:04;;;;;;;0.10;0.10;;;;;;;14.89;70.25;98107.25;4952269;28;20121;-69
2023/09/14 07:28:33;;;;;;;0.13;0.13;;;;;;;14.95;70.28;98111.75;4954175;28;20466;-69
2023/09/14 07:31:04;;;;;;;0.15;0.15;;;;;;;14.99;70.23;98112.19;4951148;28;20138;-68
2023/09/14 07:33:32;;;;;;;0.10;0.10;;;;;;;15.02;70.15;98120.66;4950790;28;20047;-69
2023/09/14 07:36:00;;;;;;;0.20;0.20;;;;;;;14.99;69.82;98112.19;4935031;28;20519;-69
2023/09/14 07:38:27;;;;;;;0.20;0.20;;;;;;;15.07;69.70;98118.16;4957783;28;20061;-69
2023/09/14 07:40:55;;;;;;;0.13;0.13;;;;;;;15.06;69.08;98116.50;4952842;28;20411;-69
2023/09/14 07:43:25;;;;;;;0.20;0.20;;;;;;;15.08;69.23;98119.00;4952471;29;20054;-69
2023/09/14 07:45:56;;;;;;;0.20;0.20;;;;;;;15.06;69.19;98129.13;4953740;28;20061;-68
2023/09/14 07:48:24;;;;;;;0.10;0.10;;;;;;;15.06;69.63;98127.25;4955352;28;20043;-69
2023/09/14 07:50:52;;;;;;;0.05;0.05;;;;;;;15.01;69.28;98131.63;4956445;28;20047;-68
2023/09/14 07:53:20;;;;;;;0.20;0.20;;;;;;;14.99;68.94;98134.53;4952237;28;20562;-68
2023/09/14 07:55:53;;;;;;;0.15;0.15;;;;;;;15.08;69.27;98127.06;4956278;28;20061;-68
2023/09/14 07:58:21;;;;;;;0.13;0.13;;;;;;;15.07;69.11;98128.09;4950670;28;20085;-69
2023/09/14 08:00:49;;;;;;;0.13;0.13;;;;;;;15.10;69.09;98129.53;4952008;29;20063;-69
2023/09/14 08:03:18;;;;;;;0.05;0.05;;;;;;;15.02;69.53;98138.66;4952637;28;20392;-69
2023/09/14 08:05:46;;;;;;;0.30;0.30;;;;;;;15.15;69.39;98137.81;4951449;29;20093;-69
2023/09/14 08:08:14;;;;;;;0.22;0.22;;;;;;;15.04;69.26;98134.72;4952639;28;20050;-69
2023/09/14 08:10:41;;;;;;;0.30;0.30;;;;;;;15.03;69.73;98143.00;4957572;28;20510;-69
2023/09/14 08:13:09;;;;;;;0.17;0.17;;;;;;;15.18;69.26;98137.38;4952758;29;20126;-69
2023/09/14 08:15:40;;;;;;;0.10;0.10;;;;;;;15.22;68.88;98136.75;4952283;29;20050;-69
2023/09/14 08:18:08;;;;;;;0.20;0.20;;;;;;;15.30;68.83;98143.75;4952693;28;20067;-69
2023/09/14 08:20:39;;;;;;;0.20;0.20;;;;;;;15.38;68.67;98146.22;4963884;28;20443;-69
2023/09/14 08:23:06;;;;;;;0.10;0.10;;;;;;;15.50;67.84;98144.53;4955757;29;20043;-69
2023/09/14 08:25:35;;;;;;;0.15;0.15;;;;;;;14.91;69.15;98145.50;4949663;29;20046;-69
2023/09/14 08:28:03;;;;;;;0.30;0.30;;;;;;;14.60;70.21;98150.69;4955499;29;20609;-67
2023/09/14 08:30:31;;;;;;;0.17;0.17;;;;;;;14.98;69.44;98146.31;4947367;28;20118;-70
2023/09/14 08:32:59;;;;;;;0.10;0.10;;;;;;;15.22;68.87;98150.19;4954215;28;20387;-67
2023/09/14 08:35:31;;;;;;;0.03;0.03;;;;;;;15.39;68.13;98148.69;4950079;29;20058;-67
2023/09/14 08:38:03;;;;;;;0.17;0.17;;;;;;;15.50;68.12;98154.47;4946733;28;20130;-69
2023/09/14 08:40:31;;;;;;;;;;;;;;;15.57;67.29;98156.16;4958267;28;20436;-69
2023/09/14 08:42:59;;;;;;;0.28;0.28;;;;;;;15.67;67.45;98161.91;4953489;29;19926;-68
2023/09/14 08:45:28;;;;;;;0.30;0.30;;;;;;;15.67;67.62;98158.38;4953425;29;20609;-68
2023/09/14 08:47:57;;;;;;;0.25;0.25;;;;;;;15.69;67.93;98154.41;4949799;28;20043;-68
2023/09/14 08:50:28;;;;;;;0.13;0.13;;;;;;;15.73;67.86;98163.72;4947813;28;20047;-69
2023/09/14 08:52:55;;;;;;;0.10;0.10;;;;;;;15.82;67.53;98163.47;4945167;29;20392;-68
2023/09/14 08:55:28;;;;;;;0.13;0.13;;;;;;;15.85;67.32;98160.38;4954308;28;20376;-69
2023/09/14 08:57:57;;;;;;;0.13;0.13;;;;;;;15.84;67.18;98166.78;4954261;28;20045;-69
2023/09/14 09:00:28;;;;;;;0.15;0.15;;;;;;;15.46;67.65;98169.41;4957681;28;20035;-70
2023/09/14 09:02:57;;;;;;;0.22;0.22;;;;;;;15.70;67.64;98171.41;4958060;28;20070;-68
2023/09/14 09:05:25;;;;;;;0.30;0.30;;;;;;;15.67;66.97;98172.66;4960238;28;20062;-68
2023/09/14 09:07:55;;;;;;;0.13;0.13;;;;;;;15.74;67.75;98175.31;4962800;28;20045;-68
2023/09/14 09:10:25;;;;;;;0.20;0.20;;;;;;;15.89;67.06;98172.34;4962156;28;20058;-68
2023/09/14 09:12:56;;;;;;;0.13;0.13;;;;;;;15.82;67.37;98169.69;4960251;28;20515;-69
2023/09/14 09:15:27;;;;;;;0.10;0.10;;;;;;;15.85;67.45;98169.28;4956404;28;20113;-69
2023/09/14 09:17:56;;;;;;;0.15;0.15;;;;;;;16.02;66.40;98173.13;4954150;29;20035;-68
2023/09/14 09:20:24;;;;;;;0.10;0.10;;;;;;;16.22;66.36;98172.19;4961619;28;20065;-69
2023/09/14 09:22:53;;;;;;;0.13;0.13;;;;;;;16.32;65.00;98169.84;4954846;28;20049;-69
2023/09/14 09:25:24;;;;;;;0.03;0.03;;;;;;;16.36;64.51;98171.06;4956226;28;20074;-69
2023/09/14 09:27:57;;;;;;;0.13;0.13;;;;;;;16.48;64.52;98163.94;4957685;28;20043;-69
2023/09/14 09:30:29;;;;;;;0.25;0.25;;;;;;;16.57;63.84;98168.03;4953050;28;20051;-69
2023/09/14 09:32:57;;;;;;;0.10;0.10;;;;;;;16.73;63.33;98167.50;4954355;29;20047;-69
2023/09/14 09:35:26;;;;;;;0.22;0.22;;;;;;;16.79;62.76;98163.13;4954232;29;20082;-69
2023/09/14 09:37:55;;;;;;;0.28;0.28;;;;;;;16.79;62.71;98161.25;4954454;29;20039;-69
2023/09/14 09:40:25;;;;;;;0.10;0.10;;;;;;;16.79;62.31;98155.84;4954594;29;20047;-69
2023/09/14 09:42:53;;;;;;;0.20;0.20;;;;;;;16.79;62.48;98166.63;4954405;29;20046;-68
2023/09/14 09:45:21;;;;;;;0.13;0.13;;;;;;;16.30;62.96;98163.88;4953609;29;20082;-68
2023/09/14 09:47:49;;;;;;;0.03;0.03;;;;;;;16.51;63.15;98167.00;4952908;29;20491;-69
2023/09/14 09:50:20;;;;;;;0.10;0.10;;;;;;;16.74;63.15;98166.47;4953964;29;20490;-69
2023/09/14 09:52:48;;;;;;;0.10;0.10;;;;;;;16.84;61.99;98163.25;4952614;28;20072;-69
2023/09/14 09:55:17;;;;;;;0.20;0.20;;;;;;;16.82;61.54;98158.09;4955781;28;20043;-69
2023/09/14 09:57:51;;;;;;;0.10;0.10;;;;;;;16.96;60.23;98164.19;4954723;28;20055;-68
2023/09/14 10:00:21;;;;;;;0.20;0.20;;;;;;;17.11;61.00;98156.59;4957082;28;20047;-68
2023/09/14 10:02:53;;;;;;;0.10;0.10;;;;;;;17.05;60.33;98159.34;4960918;28;20073;-68
2023/09/14 10:05:27;;;;;;;0.30;0.30;;;;;;;17.13;60.20;98159.88;4961068;28;20086;-69
2023/09/14 10:07:57;;;;;;;0.00;0.00;;;;;;;17.17;59.87;98157.56;4954057;28;20104;-69
2023/09/14 10:10:25;;;;;;;0.13;0.13;;;;;;;17.04;59.58;98168.47;4957543;28;20119;-68
2023/09/14 10:12:55;;;;;;;0.13;0.13;;;;;;;16.90;60.45;98166.97;4957501;29;20133;-69
2023/09/14 10:15:25;;;;;;;0.10;0.10;;;;;;;16.90;61.04;98166.97;4954101;28;20047;-69
2023/09/14 10:17:54;;;;;;;0.28;0.28;;;;;;;16.86;61.37;98166.56;4953391;28;20554;-69
2023/09/14 10:20:23;;;;;;;0.03;0.03;;;;;;;16.88;61.39;98168.00;4952529;29;20103;-69
2023/09/14 10:22:51;;;;;;;0.25;0.25;;;;;;;16.95;58.21;98167.13;4958408;29;20051;-69
2023/09/14 10:25:21;;;;;;;0.20;0.20;;;;;;;16.87;58.30;98169.06;4953867;28;20051;-69
2023/09/14 10:27:49;;;;;;;0.13;0.13;;;;;;;16.69;60.20;98160.91;4954566;29;20043;-69
2023/09/14 10:30:20;;;;;;;0.20;0.20;;;;;;;16.62;60.60;98156.59;4953909;29;20051;-69
2023/09/14 10:32:49;;;;;;;0.03;0.03;;;;;;;16.63;62.16;98159.06;4953556;29;20551;-69
2023/09/14 10:35:18;;;;;;;0.13;0.13;;;;;;;16.82;61.79;98155.41;4954586;28;20085;-69
2023/09/14 10:37:46;;;;;;;0.22;0.22;;;;;;;16.85;62.60;98152.25;4948500;28;20039;-69
2023/09/14 10:40:14;;;;;;;0.08;0.08;;;;;;;16.95;63.08;98146.38;4948378;28;20126;-69
2023/09/14 10:42:42;;;;;;;0.10;0.10;;;;;;;17.06;63.00;98150.22;4949730;28;20141;-69
2023/09/14 10:45:11;;;;;;;0.10;0.10;;;;;;;17.05;62.31;98140.47;4950619;28;20053;-68
2023/09/14 10:47:44;;;;;;;0.10;0.10;;;;;;;17.14;61.59;98142.66;4948681;29;20043;-68
2023/09/14 10:50:12;;;;;;;0.20;0.20;;;;;;;17.15;61.05;98141.59;4950152;29;20047;-68
2023/09/14 10:52:42;;;;;;;0.03;0.03;;;;;;;17.21;61.02;98135.34;4954138;28;20054;-69
2023/09/14 10:55:11;;;;;;;0.13;0.13;;;;;;;17.29;60.35;98138.78;4946608;28;20047;-69
2023/09/14 10:57:41;;;;;;;0.03;0.03;;;;;;;17.15;60.23;98136.22;4952870;29;20043;-69
2023/09/14 11:00:10;;;;;;;0.10;0.10;;;;;;;17.23;60.00;98141.31;4952897;28;20039;-69
2023/09/14 11:02:57;;;;;;;0.13;0.13;;;;;;;17.36;59.68;98142.22;4951650;29;20132;-69
2023/09/14 11:05:47;;;;;;;0.10;0.10;;;;;;;17.18;59.75;98133.06;4951928;29;20510;-69
2023/09/14 11:08:16;;;;;;;0.13;0.13;;;;;;;16.85;60.66;98136.09;4951450;29;20384;-69
2023/09/14 11:10:54;;;;;;;0.13;0.13;;;;;;;16.75;61.40;98134.94;4945281;28;20615;-69
2023/09/14 11:13:33;;;;;;;;;;;;;;;16.65;61.13;98131.91;4953151;28;20788;-69
2023/09/14 11:16:16;;;;;;;0.10;0.10;;;;;;;16.99;60.69;98128.72;4949597;29;19989;-69
2023/09/14 11:18:54;;;;;;;0.10;0.10;;;;;;;16.97;60.82;98129.97;4944527;29;20121;-69
2023/09/14 11:21:44;;;;;;;0.03;0.03;;;;;;;17.24;60.78;98134.88;4947752;29;20076;-69
2023/09/14 11:24:15;;;;;;;0.10;0.10;;;;;;;17.38;59.71;98129.34;4953023;28;20130;-69
2023/09/14 11:26:49;;;;;;;0.13;0.13;;;;;;;17.43;58.68;98124.09;4951548;29;20125;-69
2023/09/14 11:29:23;;;;;;;0.20;0.20;;;;;;;17.54;58.73;98116.06;4949810;29;20061;-69
2023/09/14 11:31:56;;;;;;;0.10;0.10;;;;;;;17.49;58.54;98118.63;4947732;29;20043;-69
2023/09/14 11:34:39;;;;;;;0.00;0.00;;;;;;;17.59;58.21;98118.09;4956172;28;20106;-69
2023/09/14 11:37:14;;;;;;;0.15;0.15;;;;;;;17.56;58.29;98124.75;4953323;28;20054;-69
2023/09/14 11:39:54;;;;;;;0.10;0.10;;;;;;;17.58;58.18;98119.97;4949462;29;20153;-69
2023/09/14 11:42:25;;;;;;;0.00;0.00;;;;;;;17.41;58.82;98118.91;4950099;29;20052;-69
2023/09/14 11:44:59;;;;;;;0.30;0.30;;;;;;;17.57;58.60;98123.69;4949502;28;20054;-69